sensor_id;sensor_type;location;lat;lon;timestamp;temperature;humidity
79494;SHT31;68951;53.130;18.104;2023-07-24T00:02:14;17.99;61.17
79494;SHT31;68951;53.130;18.104;2023-07-24T00:04:41;18.00;61.29
79494;SHT31;68951;53.130;18.104;2023-07-24T00:07:07;17.96;61.39
79494;SHT31;68951;53.130;18.104;2023-07-24T00:09:33;17.92;61.53
79494;SHT31;68951;53.130;18.104;2023-07-24T00:11:59;17.89;61.64
79494;SHT31;68951;53.130;18.104;2023-07-24T00:14:25;17.82;61.79
79494;SHT31;68951;53.130;18.104;2023-07-24T00:16:51;17.77;61.94
79494;SHT31;68951;53.130;18.104;2023-07-24T00:19:17;17.72;62.02
79494;SHT31;68951;53.130;18.104;2023-07-24T00:21:44;17.69;62.11
79494;SHT31;68951;53.130;18.104;2023-07-24T00:24:10;17.68;62.20
79494;SHT31;68951;53.130;18.104;2023-07-24T00:26:36;17.63;62.28
79494;SHT31;68951;53.130;18.104;2023-07-24T00:29:02;17.59;62.36
79494;SHT31;68951;53.130;18.104;2023-07-24T00:31:28;17.55;62.44
79494;SHT31;68951;53.130;18.104;2023-07-24T00:33:54;17.51;62.54
79494;SHT31;68951;53.130;18.104;2023-07-24T00:36:20;17.51;62.60
79494;SHT31;68951;53.130;18.104;2023-07-24T00:38:47;17.51;62.73
79494;SHT31;68951;53.130;18.104;2023-07-24T00:41:13;17.50;62.83
79494;SHT31;68951;53.130;18.104;2023-07-24T00:43:39;17.50;62.90
79494;SHT31;68951;53.130;18.104;2023-07-24T00:46:06;17.52;62.90
79494;SHT31;68951;53.130;18.104;2023-07-24T00:48:32;17.52;62.98
79494;SHT31;68951;53.130;18.104;2023-07-24T00:50:59;17.50;63.00
79494;SHT31;68951;53.130;18.104;2023-07-24T00:53:25;17.49;63.00
79494;SHT31;68951;53.130;18.104;2023-07-24T00:55:52;17.47;63.09
79494;SHT31;68951;53.130;18.104;2023-07-24T00:58:19;17.44;63.13
79494;SHT31;68951;53.130;18.104;2023-07-24T01:00:45;17.41;63.19
79494;SHT31;68951;53.130;18.104;2023-07-24T01:03:11;17.36;63.25
79494;SHT31;68951;53.130;18.104;2023-07-24T01:05:38;17.32;63.32
79494;SHT31;68951;53.130;18.104;2023-07-24T01:08:06;17.29;63.41
79494;SHT31;68951;53.130;18.104;2023-07-24T01:10:32;17.27;63.50
79494;SHT31;68951;53.130;18.104;2023-07-24T01:12:59;17.26;63.56
79494;SHT31;68951;53.130;18.104;2023-07-24T01:15:54;17.29;63.60
79494;SHT31;68951;53.130;18.104;2023-07-24T01:18:26;17.33;63.68
79494;SHT31;68951;53.130;18.104;2023-07-24T01:20:56;17.34;63.67
79494;SHT31;68951;53.130;18.104;2023-07-24T01:26:35;17.27;63.71
79494;SHT31;68951;53.130;18.104;2023-07-24T01:29:01;17.22;63.76
79494;SHT31;68951;53.130;18.104;2023-07-24T01:31:27;17.17;63.80
79494;SHT31;68951;53.130;18.104;2023-07-24T01:33:53;17.13;63.89
79494;SHT31;68951;53.130;18.104;2023-07-24T01:36:20;17.10;63.93
79494;SHT31;68951;53.130;18.104;2023-07-24T01:38:47;17.07;64.01
79494;SHT31;68951;53.130;18.104;2023-07-24T01:41:14;17.04;64.09
79494;SHT31;68951;53.130;18.104;2023-07-24T01:43:41;17.02;64.15
79494;SHT31;68951;53.130;18.104;2023-07-24T01:46:08;16.97;64.20
79494;SHT31;68951;53.130;18.104;2023-07-24T01:48:34;16.97;64.20
79494;SHT31;68951;53.130;18.104;2023-07-24T01:51:00;16.95;64.24
79494;SHT31;68951;53.130;18.104;2023-07-24T01:53:27;16.95;64.30
79494;SHT31;68951;53.130;18.104;2023-07-24T01:55:53;16.96;64.30
79494;SHT31;68951;53.130;18.104;2023-07-24T01:58:19;16.97;64.30
79494;SHT31;68951;53.130;18.104;2023-07-24T02:00:45;16.93;64.37
79494;SHT31;68951;53.130;18.104;2023-07-24T02:03:11;16.88;64.42
79494;SHT31;68951;53.130;18.104;2023-07-24T02:05:37;16.84;64.44
79494;SHT31;68951;53.130;18.104;2023-07-24T02:08:03;16.80;64.49
79494;SHT31;68951;53.130;18.104;2023-07-24T02:10:30;16.78;64.57
79494;SHT31;68951;53.130;18.104;2023-07-24T02:12:56;16.76;64.62
79494;SHT31;68951;53.130;18.104;2023-07-24T02:15:22;16.71;64.69
79494;SHT31;68951;53.130;18.104;2023-07-24T02:17:48;16.66;64.73
79494;SHT31;68951;53.130;18.104;2023-07-24T02:20:14;16.62;64.80
79494;SHT31;68951;53.130;18.104;2023-07-24T02:22:40;16.61;64.80
79494;SHT31;68951;53.130;18.104;2023-07-24T02:25:07;16.61;64.88
79494;SHT31;68951;53.130;18.104;2023-07-24T02:27:33;16.60;64.90
79494;SHT31;68951;53.130;18.104;2023-07-24T02:30:00;16.58;64.99
79494;SHT31;68951;53.130;18.104;2023-07-24T02:32:28;16.54;65.07
79494;SHT31;68951;53.130;18.104;2023-07-24T02:34:54;16.51;65.13
79494;SHT31;68951;53.130;18.104;2023-07-24T02:37:20;16.51;65.20
79494;SHT31;68951;53.130;18.104;2023-07-24T02:39:46;16.47;65.20
79494;SHT31;68951;53.130;18.104;2023-07-24T02:42:12;16.41;65.25
79494;SHT31;68951;53.130;18.104;2023-07-24T02:44:39;16.34;65.31
79494;SHT31;68951;53.130;18.104;2023-07-24T02:47:05;16.31;65.38
79494;SHT31;68951;53.130;18.104;2023-07-24T02:49:31;16.29;65.44
79494;SHT31;68951;53.130;18.104;2023-07-24T02:51:58;16.29;65.50
79494;SHT31;68951;53.130;18.104;2023-07-24T02:54:25;16.33;65.58
79494;SHT31;68951;53.130;18.104;2023-07-24T02:56:52;16.36;65.60
79494;SHT31;68951;53.130;18.104;2023-07-24T02:59:18;16.39;65.60
79494;SHT31;68951;53.130;18.104;2023-07-24T03:01:44;16.39;65.60
79494;SHT31;68951;53.130;18.104;2023-07-24T03:04:10;16.39;65.63
79494;SHT31;68951;53.130;18.104;2023-07-24T03:06:38;16.41;65.64
79494;SHT31;68951;53.130;18.104;2023-07-24T03:09:05;16.40;65.63
79494;SHT31;68951;53.130;18.104;2023-07-24T03:11:32;16.40;65.66
79494;SHT31;68951;53.130;18.104;2023-07-24T03:13:58;16.38;65.69
79494;SHT31;68951;53.130;18.104;2023-07-24T03:16:24;16.36;65.72
79494;SHT31;68951;53.130;18.104;2023-07-24T03:18:50;16.36;65.79
79494;SHT31;68951;53.130;18.104;2023-07-24T03:21:16;16.40;65.80
79494;SHT31;68951;53.130;18.104;2023-07-24T03:23:42;16.46;65.80
79494;SHT31;68951;53.130;18.104;2023-07-24T03:26:09;16.55;65.70
79494;SHT31;68951;53.130;18.104;2023-07-24T03:28:35;16.62;65.70
79494;SHT31;68951;53.130;18.104;2023-07-24T03:31:01;16.66;65.70
79494;SHT31;68951;53.130;18.104;2023-07-24T03:33:27;16.69;65.70
79494;SHT31;68951;53.130;18.104;2023-07-24T03:35:53;16.74;65.66
79494;SHT31;68951;53.130;18.104;2023-07-24T03:38:20;16.81;65.58
79494;SHT31;68951;53.130;18.104;2023-07-24T03:40:46;16.85;65.50
79494;SHT31;68951;53.130;18.104;2023-07-24T03:43:13;16.89;65.42
79494;SHT31;68951;53.130;18.104;2023-07-24T03:45:39;16.92;65.38
79494;SHT31;68951;53.130;18.104;2023-07-24T03:48:05;16.97;65.40
79494;SHT31;68951;53.130;18.104;2023-07-24T03:50:31;17.03;65.39
79494;SHT31;68951;53.130;18.104;2023-07-24T03:52:57;17.08;65.30
79494;SHT31;68951;53.130;18.104;2023-07-24T03:55:23;17.13;65.30
79494;SHT31;68951;53.130;18.104;2023-07-24T03:57:49;17.21;65.22
79494;SHT31;68951;53.130;18.104;2023-07-24T04:00:15;17.31;65.07
79494;SHT31;68951;53.130;18.104;2023-07-24T04:02:44;17.40;64.90
79494;SHT31;68951;53.130;18.104;2023-07-24T04:05:10;17.50;64.75
79494;SHT31;68951;53.130;18.104;2023-07-24T04:07:36;17.59;64.59
79494;SHT31;68951;53.130;18.104;2023-07-24T04:10:03;17.68;64.46
79494;SHT31;68951;53.130;18.104;2023-07-24T04:12:30;17.74;64.36
79494;SHT31;68951;53.130;18.104;2023-07-24T04:14:56;17.81;64.26
79494;SHT31;68951;53.130;18.104;2023-07-24T04:17:22;17.87;64.14
79494;SHT31;68951;53.130;18.104;2023-07-24T04:19:48;17.93;64.06
79494;SHT31;68951;53.130;18.104;2023-07-24T04:22:14;17.99;63.97
79494;SHT31;68951;53.130;18.104;2023-07-24T04:24:40;18.04;63.91
79494;SHT31;68951;53.130;18.104;2023-07-24T04:27:07;18.08;63.83
79494;SHT31;68951;53.130;18.104;2023-07-24T04:29:33;18.10;63.77
79494;SHT31;68951;53.130;18.104;2023-07-24T04:31:59;18.13;63.70
79494;SHT31;68951;53.130;18.104;2023-07-24T04:34:25;18.18;63.67
79494;SHT31;68951;53.130;18.104;2023-07-24T04:36:51;18.26;63.60
79494;SHT31;68951;53.130;18.104;2023-07-24T04:39:17;18.32;63.51
79494;SHT31;68951;53.130;18.104;2023-07-24T04:41:44;18.36;63.48
79494;SHT31;68951;53.130;18.104;2023-07-24T04:44:10;18.38;63.44
79494;SHT31;68951;53.130;18.104;2023-07-24T04:46:36;18.43;63.39
79494;SHT31;68951;53.130;18.104;2023-07-24T04:49:02;18.51;63.34
79494;SHT31;68951;53.130;18.104;2023-07-24T04:51:28;18.55;63.30
79494;SHT31;68951;53.130;18.104;2023-07-24T04:53:54;18.59;63.29
79494;SHT31;68951;53.130;18.104;2023-07-24T04:56:20;18.62;63.23
79494;SHT31;68951;53.130;18.104;2023-07-24T04:58:46;18.63;63.20
79494;SHT31;68951;53.130;18.104;2023-07-24T05:01:12;18.65;63.20
79494;SHT31;68951;53.130;18.104;2023-07-24T05:03:39;18.70;63.14
79494;SHT31;68951;53.130;18.104;2023-07-24T05:06:05;18.74;63.15
79494;SHT31;68951;53.130;18.104;2023-07-24T05:08:31;18.83;63.11
79494;SHT31;68951;53.130;18.104;2023-07-24T05:10:57;18.89;63.10
79494;SHT31;68951;53.130;18.104;2023-07-24T05:13:24;18.94;63.05
79494;SHT31;68951;53.130;18.104;2023-07-24T05:15:54;19.01;62.99
79494;SHT31;68951;53.130;18.104;2023-07-24T05:18:20;19.06;62.92
79494;SHT31;68951;53.130;18.104;2023-07-24T05:20:46;19.13;62.89
79494;SHT31;68951;53.130;18.104;2023-07-24T05:23:14;19.16;62.82
79494;SHT31;68951;53.130;18.104;2023-07-24T05:25:40;19.18;62.78
79494;SHT31;68951;53.130;18.104;2023-07-24T05:28:07;19.22;62.70
79494;SHT31;68951;53.130;18.104;2023-07-24T05:30:33;19.25;62.66
79494;SHT31;68951;53.130;18.104;2023-07-24T05:32:59;19.29;62.63
79494;SHT31;68951;53.130;18.104;2023-07-24T05:35:26;19.35;62.59
79494;SHT31;68951;53.130;18.104;2023-07-24T05:37:52;19.42;62.60
79494;SHT31;68951;53.130;18.104;2023-07-24T05:40:18;19.47;62.60
79494;SHT31;68951;53.130;18.104;2023-07-24T05:42:45;19.49;62.59
79494;SHT31;68951;53.130;18.104;2023-07-24T05:45:12;19.50;62.76
79494;SHT31;68951;53.130;18.104;2023-07-24T05:47:40;19.49;63.05
79494;SHT31;68951;53.130;18.104;2023-07-24T05:50:06;19.43;63.46
79494;SHT31;68951;53.130;18.104;2023-07-24T05:52:33;19.36;63.87
79494;SHT31;68951;53.130;18.104;2023-07-24T05:54:59;19.31;64.23
79494;SHT31;68951;53.130;18.104;2023-07-24T05:57:25;19.25;64.67
79494;SHT31;68951;53.130;18.104;2023-07-24T05:59:51;19.17;65.15
79494;SHT31;68951;53.130;18.104;2023-07-24T06:02:17;19.13;65.54
79494;SHT31;68951;53.130;18.104;2023-07-24T06:04:44;19.13;65.84
79494;SHT31;68951;53.130;18.104;2023-07-24T06:07:10;19.15;66.25
79494;SHT31;68951;53.130;18.104;2023-07-24T06:09:36;19.17;66.51
79494;SHT31;68951;53.130;18.104;2023-07-24T06:12:03;19.15;66.82
79494;SHT31;68951;53.130;18.104;2023-07-24T06:14:29;19.15;67.13
79494;SHT31;68951;53.130;18.104;2023-07-24T06:16:55;19.09;67.46
79494;SHT31;68951;53.130;18.104;2023-07-24T06:19:21;19.06;67.82
79494;SHT31;68951;53.130;18.104;2023-07-24T06:21:48;19.09;68.03
79494;SHT31;68951;53.130;18.104;2023-07-24T06:24:14;19.10;68.29
79494;SHT31;68951;53.130;18.104;2023-07-24T06:26:40;19.09;68.60
79494;SHT31;68951;53.130;18.104;2023-07-24T06:29:06;19.14;68.85
79494;SHT31;68951;53.130;18.104;2023-07-24T06:31:32;19.23;68.97
79494;SHT31;68951;53.130;18.104;2023-07-24T06:33:58;19.26;69.15
79494;SHT31;68951;53.130;18.104;2023-07-24T06:36:24;19.33;69.31
79494;SHT31;68951;53.130;18.104;2023-07-24T06:38:52;19.35;69.47
79494;SHT31;68951;53.130;18.104;2023-07-24T06:41:18;19.36;69.69
79494;SHT31;68951;53.130;18.104;2023-07-24T06:43:46;19.37;69.87
79494;SHT31;68951;53.130;18.104;2023-07-24T06:46:12;19.46;70.00
79494;SHT31;68951;53.130;18.104;2023-07-24T06:48:38;19.61;69.85
79494;SHT31;68951;53.130;18.104;2023-07-24T06:51:05;19.74;69.80
79494;SHT31;68951;53.130;18.104;2023-07-24T06:53:31;19.85;69.80
79494;SHT31;68951;53.130;18.104;2023-07-24T06:55:57;19.90;69.80
79494;SHT31;68951;53.130;18.104;2023-07-24T06:58:23;19.96;69.88
79494;SHT31;68951;53.130;18.104;2023-07-24T07:00:49;20.03;69.90
79494;SHT31;68951;53.130;18.104;2023-07-24T07:03:15;20.08;69.93
79494;SHT31;68951;53.130;18.104;2023-07-24T07:05:42;20.08;70.04
79494;SHT31;68951;53.130;18.104;2023-07-24T07:08:08;20.12;70.15
79494;SHT31;68951;53.130;18.104;2023-07-24T07:10:34;20.16;70.21
79494;SHT31;68951;53.130;18.104;2023-07-24T07:13:00;20.18;70.34
79494;SHT31;68951;53.130;18.104;2023-07-24T07:15:27;20.25;70.42
79494;SHT31;68951;53.130;18.104;2023-07-24T07:17:53;20.30;70.55
79494;SHT31;68951;53.130;18.104;2023-07-24T07:20:19;20.34;70.52
79494;SHT31;68951;53.130;18.104;2023-07-24T07:22:45;20.33;70.56
79494;SHT31;68951;53.130;18.104;2023-07-24T07:25:12;20.35;70.53
79494;SHT31;68951;53.130;18.104;2023-07-24T07:27:38;20.40;70.48
79494;SHT31;68951;53.130;18.104;2023-07-24T07:30:04;20.41;70.38
79494;SHT31;68951;53.130;18.104;2023-07-24T07:32:32;20.43;70.40
79494;SHT31;68951;53.130;18.104;2023-07-24T07:34:58;20.45;70.48
79494;SHT31;68951;53.130;18.104;2023-07-24T07:37:25;20.47;70.65
79494;SHT31;68951;53.130;18.104;2023-07-24T07:39:51;20.52;70.82
79494;SHT31;68951;53.130;18.104;2023-07-24T07:42:17;20.62;70.94
79494;SHT31;68951;53.130;18.104;2023-07-24T07:44:43;20.67;70.94
79494;SHT31;68951;53.130;18.104;2023-07-24T07:47:09;20.68;71.00
79494;SHT31;68951;53.130;18.104;2023-07-24T07:49:35;20.74;70.99
79494;SHT31;68951;53.130;18.104;2023-07-24T07:52:01;20.75;70.96
79494;SHT31;68951;53.130;18.104;2023-07-24T07:54:28;20.79;70.82
79494;SHT31;68951;53.130;18.104;2023-07-24T07:56:54;20.84;70.63
79494;SHT31;68951;53.130;18.104;2023-07-24T07:59:20;20.98;70.66
79494;SHT31;68951;53.130;18.104;2023-07-24T08:01:47;21.15;70.66
79494;SHT31;68951;53.130;18.104;2023-07-24T08:04:13;21.34;70.53
79494;SHT31;68951;53.130;18.104;2023-07-24T08:06:39;21.48;70.41
79494;SHT31;68951;53.130;18.104;2023-07-24T08:09:05;21.55;70.13
79494;SHT31;68951;53.130;18.104;2023-07-24T08:11:31;21.64;69.81
79494;SHT31;68951;53.130;18.104;2023-07-24T08:13:58;21.73;69.40
79494;SHT31;68951;53.130;18.104;2023-07-24T08:16:24;21.85;68.87
79494;SHT31;68951;53.130;18.104;2023-07-24T08:18:50;21.97;68.22
79494;SHT31;68951;53.130;18.104;2023-07-24T08:21:16;22.12;67.82
79494;SHT31;68951;53.130;18.104;2023-07-24T08:23:42;22.26;67.33
79494;SHT31;68951;53.130;18.104;2023-07-24T08:26:08;22.34;66.52
79494;SHT31;68951;53.130;18.104;2023-07-24T08:28:35;22.45;66.13
79494;SHT31;68951;53.130;18.104;2023-07-24T08:31:01;22.60;65.80
79494;SHT31;68951;53.130;18.104;2023-07-24T08:33:28;22.81;65.43
79494;SHT31;68951;53.130;18.104;2023-07-24T08:35:58;23.04;65.03
79494;SHT31;68951;53.130;18.104;2023-07-24T08:38:26;23.22;64.43
79494;SHT31;68951;53.130;18.104;2023-07-24T08:41:05;23.38;63.60
79494;SHT31;68951;53.130;18.104;2023-07-24T08:43:35;23.52;62.85
79494;SHT31;68951;53.130;18.104;2023-07-24T08:46:03;23.67;62.29
79494;SHT31;68951;53.130;18.104;2023-07-24T08:48:32;23.81;61.75
79494;SHT31;68951;53.130;18.104;2023-07-24T08:53:35;24.01;60.53
79494;SHT31;68951;53.130;18.104;2023-07-24T08:56:04;24.04;59.96
79494;SHT31;68951;53.130;18.104;2023-07-24T08:58:31;24.09;59.50
79494;SHT31;68951;53.130;18.104;2023-07-24T09:00:58;24.23;59.22
79494;SHT31;68951;53.130;18.104;2023-07-24T09:03:26;24.34;58.62
79494;SHT31;68951;53.130;18.104;2023-07-24T09:05:54;24.49;58.36
79494;SHT31;68951;53.130;18.104;2023-07-24T09:11:09;24.90;57.79
79494;SHT31;68951;53.130;18.104;2023-07-24T09:13:41;25.01;57.24
79494;SHT31;68951;53.130;18.104;2023-07-24T09:16:08;25.04;57.26
79494;SHT31;68951;53.130;18.104;2023-07-24T09:18:46;25.07;57.18
79494;SHT31;68951;53.130;18.104;2023-07-24T09:21:12;25.04;56.89
79494;SHT31;68951;53.130;18.104;2023-07-24T09:23:38;25.11;56.27
79494;SHT31;68951;53.130;18.104;2023-07-24T09:26:06;25.18;55.83
79494;SHT31;68951;53.130;18.104;2023-07-24T09:28:34;25.33;55.63
79494;SHT31;68951;53.130;18.104;2023-07-24T09:31:01;25.55;55.24
79494;SHT31;68951;53.130;18.104;2023-07-24T09:33:34;25.74;54.57
79494;SHT31;68951;53.130;18.104;2023-07-24T09:36:02;25.83;54.17
79494;SHT31;68951;53.130;18.104;2023-07-24T09:38:30;25.88;53.89
79494;SHT31;68951;53.130;18.104;2023-07-24T09:40:56;25.90;53.36
79494;SHT31;68951;53.130;18.104;2023-07-24T09:43:24;26.06;53.09
79494;SHT31;68951;53.130;18.104;2023-07-24T09:45:53;26.17;52.59
79494;SHT31;68951;53.130;18.104;2023-07-24T09:48:22;26.19;52.31
79494;SHT31;68951;53.130;18.104;2023-07-24T09:50:57;26.23;52.11
79494;SHT31;68951;53.130;18.104;2023-07-24T09:53:38;26.34;51.90
79494;SHT31;68951;53.130;18.104;2023-07-24T09:56:12;26.39;51.47
79494;SHT31;68951;53.130;18.104;2023-07-24T09:58:40;26.38;51.13
79494;SHT31;68951;53.130;18.104;2023-07-24T10:01:07;26.39;50.94
79494;SHT31;68951;53.130;18.104;2023-07-24T10:03:37;26.43;50.86
79494;SHT31;68951;53.130;18.104;2023-07-24T10:06:15;26.46;50.70
79494;SHT31;68951;53.130;18.104;2023-07-24T10:08:42;26.71;50.59
79494;SHT31;68951;53.130;18.104;2023-07-24T10:11:13;27.01;50.30
79494;SHT31;68951;53.130;18.104;2023-07-24T10:13:40;27.26;49.84
79494;SHT31;68951;53.130;18.104;2023-07-24T10:16:07;27.28;49.24
79494;SHT31;68951;53.130;18.104;2023-07-24T10:18:34;27.43;49.03
79494;SHT31;68951;53.130;18.104;2023-07-24T10:21:09;27.62;48.53
79494;SHT31;68951;53.130;18.104;2023-07-24T10:23:42;27.83;48.01
79494;SHT31;68951;53.130;18.104;2023-07-24T10:26:12;27.91;47.38
79494;SHT31;68951;53.130;18.104;2023-07-24T10:28:40;28.01;47.00
79494;SHT31;68951;53.130;18.104;2023-07-24T10:31:08;28.14;46.69
79494;SHT31;68951;53.130;18.104;2023-07-24T10:33:46;28.32;46.43
79494;SHT31;68951;53.130;18.104;2023-07-24T10:36:16;28.47;46.02
79494;SHT31;68951;53.130;18.104;2023-07-24T10:38:46;28.52;45.66
79494;SHT31;68951;53.130;18.104;2023-07-24T10:41:17;28.48;45.54
79494;SHT31;68951;53.130;18.104;2023-07-24T10:43:44;28.52;45.54
79494;SHT31;68951;53.130;18.104;2023-07-24T10:46:12;28.35;45.31
79494;SHT31;68951;53.130;18.104;2023-07-24T10:48:44;28.28;45.27
79494;SHT31;68951;53.130;18.104;2023-07-24T10:51:13;28.40;45.18
79494;SHT31;68951;53.130;18.104;2023-07-24T10:53:49;28.34;45.06
79494;SHT31;68951;53.130;18.104;2023-07-24T10:56:16;28.38;44.96
79494;SHT31;68951;53.130;18.104;2023-07-24T10:58:42;28.44;44.95
79494;SHT31;68951;53.130;18.104;2023-07-24T11:01:09;28.35;44.77
79494;SHT31;68951;53.130;18.104;2023-07-24T11:03:40;28.24;44.76
79494;SHT31;68951;53.130;18.104;2023-07-24T11:06:17;28.42;44.59
79494;SHT31;68951;53.130;18.104;2023-07-24T11:08:52;28.35;44.49
79494;SHT31;68951;53.130;18.104;2023-07-24T11:11:30;28.35;44.41
79494;SHT31;68951;53.130;18.104;2023-07-24T11:13:58;28.39;44.39
79494;SHT31;68951;53.130;18.104;2023-07-24T11:16:27;28.40;44.28
79494;SHT31;68951;53.130;18.104;2023-07-24T11:18:55;28.31;44.21
79494;SHT31;68951;53.130;18.104;2023-07-24T11:21:22;28.17;44.29
79494;SHT31;68951;53.130;18.104;2023-07-24T11:23:51;28.15;44.35
79494;SHT31;68951;53.130;18.104;2023-07-24T11:26:19;28.23;44.37
79494;SHT31;68951;53.130;18.104;2023-07-24T11:28:48;28.40;44.20
79494;SHT31;68951;53.130;18.104;2023-07-24T11:31:15;28.63;44.07
79494;SHT31;68951;53.130;18.104;2023-07-24T11:33:45;28.80;43.88
79494;SHT31;68951;53.130;18.104;2023-07-24T11:36:14;28.90;43.77
79494;SHT31;68951;53.130;18.104;2023-07-24T11:38:41;28.73;43.61
79494;SHT31;68951;53.130;18.104;2023-07-24T11:41:07;28.58;43.73
79494;SHT31;68951;53.130;18.104;2023-07-24T11:43:34;28.51;43.88
79494;SHT31;68951;53.130;18.104;2023-07-24T11:46:00;28.47;43.89
79494;SHT31;68951;53.130;18.104;2023-07-24T11:48:27;28.49;43.87
79494;SHT31;68951;53.130;18.104;2023-07-24T11:50:54;28.57;43.68
79494;SHT31;68951;53.130;18.104;2023-07-24T11:53:23;28.56;43.53
79494;SHT31;68951;53.130;18.104;2023-07-24T11:55:57;28.56;43.35
79494;SHT31;68951;53.130;18.104;2023-07-24T11:58:25;28.81;43.18
79494;SHT31;68951;53.130;18.104;2023-07-24T12:00:53;29.14;42.74
79494;SHT31;68951;53.130;18.104;2023-07-24T12:03:21;29.21;42.24
79494;SHT31;68951;53.130;18.104;2023-07-24T12:05:50;29.30;41.90
79494;SHT31;68951;53.130;18.104;2023-07-24T12:08:16;29.69;41.73
79494;SHT31;68951;53.130;18.104;2023-07-24T12:10:45;30.16;41.48
79494;SHT31;68951;53.130;18.104;2023-07-24T12:13:11;30.50;40.93
79494;SHT31;68951;53.130;18.104;2023-07-24T12:15:38;30.78;40.48
79494;SHT31;68951;53.130;18.104;2023-07-24T12:18:04;30.93;40.25
79494;SHT31;68951;53.130;18.104;2023-07-24T12:20:31;30.64;40.02
79494;SHT31;68951;53.130;18.104;2023-07-24T12:22:58;30.31;39.97
79494;SHT31;68951;53.130;18.104;2023-07-24T12:25:25;29.98;39.99
79494;SHT31;68951;53.130;18.104;2023-07-24T12:27:51;29.66;40.01
79494;SHT31;68951;53.130;18.104;2023-07-24T12:30:17;29.51;40.24
79494;SHT31;68951;53.130;18.104;2023-07-24T12:32:45;29.57;40.35
79494;SHT31;68951;53.130;18.104;2023-07-24T12:35:11;29.46;40.39
79494;SHT31;68951;53.130;18.104;2023-07-24T12:37:38;29.36;40.52
79494;SHT31;68951;53.130;18.104;2023-07-24T12:40:07;29.26;40.55
79494;SHT31;68951;53.130;18.104;2023-07-24T12:42:34;29.06;40.60
79494;SHT31;68951;53.130;18.104;2023-07-24T12:45:01;28.92;40.60
79494;SHT31;68951;53.130;18.104;2023-07-24T12:47:31;28.85;40.69
79494;SHT31;68951;53.130;18.104;2023-07-24T12:49:58;28.78;40.74
79494;SHT31;68951;53.130;18.104;2023-07-24T12:52:25;28.73;40.89
79494;SHT31;68951;53.130;18.104;2023-07-24T12:54:53;28.67;40.93
79494;SHT31;68951;53.130;18.104;2023-07-24T12:57:19;28.56;40.94
79494;SHT31;68951;53.130;18.104;2023-07-24T12:59:45;28.50;41.01
79494;SHT31;68951;53.130;18.104;2023-07-24T13:02:11;28.54;41.07
79494;SHT31;68951;53.130;18.104;2023-07-24T13:04:38;28.91;41.11
79494;SHT31;68951;53.130;18.104;2023-07-24T13:07:04;29.28;40.84
79494;SHT31;68951;53.130;18.104;2023-07-24T13:09:31;29.56;40.58
79494;SHT31;68951;53.130;18.104;2023-07-24T13:11:57;29.80;40.39
79494;SHT31;68951;53.130;18.104;2023-07-24T13:14:23;30.05;40.12
79494;SHT31;68951;53.130;18.104;2023-07-24T13:16:50;30.35;39.74
79494;SHT31;68951;53.130;18.104;2023-07-24T13:19:16;30.58;39.49
79494;SHT31;68951;53.130;18.104;2023-07-24T13:21:42;30.77;39.37
79494;SHT31;68951;53.130;18.104;2023-07-24T13:24:09;30.90;39.08
79494;SHT31;68951;53.130;18.104;2023-07-24T13:26:35;31.08;38.77
79494;SHT31;68951;53.130;18.104;2023-07-24T13:29:03;31.21;38.35
79494;SHT31;68951;53.130;18.104;2023-07-24T13:31:30;31.09;38.12
79494;SHT31;68951;53.130;18.104;2023-07-24T13:33:57;31.20;38.08
79494;SHT31;68951;53.130;18.104;2023-07-24T13:36:23;31.37;38.02
79494;SHT31;68951;53.130;18.104;2023-07-24T13:38:49;31.36;37.88
79494;SHT31;68951;53.130;18.104;2023-07-24T13:41:16;31.23;37.64
79494;SHT31;68951;53.130;18.104;2023-07-24T13:43:42;31.08;37.52
79494;SHT31;68951;53.130;18.104;2023-07-24T13:46:08;30.95;37.49
79494;SHT31;68951;53.130;18.104;2023-07-24T13:48:34;30.90;37.59
79494;SHT31;68951;53.130;18.104;2023-07-24T13:51:01;30.67;37.43
79494;SHT31;68951;53.130;18.104;2023-07-24T13:53:27;30.45;37.60
79494;SHT31;68951;53.130;18.104;2023-07-24T13:55:53;30.46;37.70
79494;SHT31;68951;53.130;18.104;2023-07-24T13:58:20;30.68;37.83
79494;SHT31;68951;53.130;18.104;2023-07-24T14:00:46;30.98;37.75
79494;SHT31;68951;53.130;18.104;2023-07-24T14:03:13;30.93;37.53
79494;SHT31;68951;53.130;18.104;2023-07-24T14:05:40;30.83;37.50
79494;SHT31;68951;53.130;18.104;2023-07-24T14:08:06;30.65;37.32
79494;SHT31;68951;53.130;18.104;2023-07-24T14:10:33;30.53;37.44
79494;SHT31;68951;53.130;18.104;2023-07-24T14:12:59;30.74;37.47
79494;SHT31;68951;53.130;18.104;2023-07-24T14:15:25;31.09;37.37
79494;SHT31;68951;53.130;18.104;2023-07-24T14:17:51;31.37;37.15
79494;SHT31;68951;53.130;18.104;2023-07-24T14:20:18;31.59;36.84
79494;SHT31;68951;53.130;18.104;2023-07-24T14:22:44;31.69;36.59
79494;SHT31;68951;53.130;18.104;2023-07-24T14:25:10;31.74;36.53
79494;SHT31;68951;53.130;18.104;2023-07-24T14:27:37;31.68;36.48
79494;SHT31;68951;53.130;18.104;2023-07-24T14:30:03;31.73;36.40
79494;SHT31;68951;53.130;18.104;2023-07-24T14:32:30;31.67;36.31
79494;SHT31;68951;53.130;18.104;2023-07-24T14:34:56;31.54;36.25
79494;SHT31;68951;53.130;18.104;2023-07-24T14:37:24;31.37;36.30
79494;SHT31;68951;53.130;18.104;2023-07-24T14:39:50;31.30;36.49
79494;SHT31;68951;53.130;18.104;2023-07-24T14:42:16;31.23;36.58
79494;SHT31;68951;53.130;18.104;2023-07-24T14:44:42;31.11;36.58
79494;SHT31;68951;53.130;18.104;2023-07-24T14:47:09;30.94;36.68
79494;SHT31;68951;53.130;18.104;2023-07-24T14:49:35;30.77;36.77
79494;SHT31;68951;53.130;18.104;2023-07-24T14:52:01;30.60;36.89
79494;SHT31;68951;53.130;18.104;2023-07-24T14:54:27;30.49;36.98
79494;SHT31;68951;53.130;18.104;2023-07-24T14:56:53;30.45;37.00
79494;SHT31;68951;53.130;18.104;2023-07-24T14:59:21;30.41;37.08
79494;SHT31;68951;53.130;18.104;2023-07-24T15:01:47;30.44;37.10
79494;SHT31;68951;53.130;18.104;2023-07-24T15:04:13;30.44;37.13
79494;SHT31;68951;53.130;18.104;2023-07-24T15:06:40;30.35;37.23
79494;SHT31;68951;53.130;18.104;2023-07-24T15:09:06;30.25;37.27
79494;SHT31;68951;53.130;18.104;2023-07-24T15:11:32;30.26;37.30
79494;SHT31;68951;53.130;18.104;2023-07-24T15:13:58;30.23;37.20
79494;SHT31;68951;53.130;18.104;2023-07-24T15:16:24;30.10;37.20
79494;SHT31;68951;53.130;18.104;2023-07-24T15:18:50;30.11;37.33
79494;SHT31;68951;53.130;18.104;2023-07-24T15:21:16;30.22;37.43
79494;SHT31;68951;53.130;18.104;2023-07-24T15:23:42;30.25;37.40